createdAt,value
2017-11-22T00:00:34.740Z,77.66
2017-11-22T00:01:40.462Z,77.69
2017-11-22T00:02:46.185Z,77.53
2017-11-22T00:03:52.693Z,77.46
2017-11-22T00:04:58.410Z,77.51
2017-11-22T00:06:04.135Z,77.71
2017-11-22T00:07:09.881Z,77.78
2017-11-22T00:08:15.602Z,77.71
2017-11-22T00:09:22.156Z,77.57
2017-11-22T00:10:27.859Z,77.43
2017-11-22T00:11:33.586Z,77.31
2017-11-22T00:12:39.322Z,77.38
2017-11-22T00:13:45.256Z,77.29
2017-11-22T00:14:51.003Z,77.20
2017-11-22T00:15:56.736Z,77.54
2017-11-22T00:17:02.458Z,77.58
2017-11-22T00:18:09.242Z,77.43
2017-11-22T00:19:14.987Z,77.74
2017-11-22T00:20:20.737Z,77.76
2017-11-22T00:21:26.458Z,77.81
2017-11-22T00:22:32.182Z,78.05
2017-11-22T00:23:38.671Z,78.32
2017-11-22T00:24:44.421Z,78.30
2017-11-22T00:25:50.171Z,78.17
2017-11-22T00:26:55.889Z,78.01
2017-11-22T00:28:01.635Z,77.93
2017-11-22T00:29:07.354Z,77.89
2017-11-22T00:30:13.080Z,77.79
2017-11-22T00:31:19.815Z,78.08
2017-11-22T00:32:25.539Z,78.12
2017-11-22T00:33:31.255Z,77.85
2017-11-22T00:34:36.981Z,78.02
2017-11-22T00:35:43.470Z,78.17
2017-11-22T00:36:49.228Z,77.79
2017-11-22T00:37:54.949Z,77.74
2017-11-22T00:39:00.671Z,77.77
2017-11-22T00:40:06.395Z,77.86
2017-11-22T00:41:12.885Z,77.98
2017-11-22T00:42:18.636Z,77.92
2017-11-22T00:43:24.358Z,77.80
2017-11-22T00:44:30.078Z,77.70
2017-11-22T00:45:36.561Z,77.74
2017-11-22T00:46:42.282Z,77.70
2017-11-22T00:47:48.030Z,77.70
2017-11-22T00:48:53.803Z,77.61
2017-11-22T00:49:59.521Z,77.56
2017-11-22T00:51:05.249Z,77.62
2017-11-22T00:52:11.953Z,77.57
2017-11-22T00:53:17.716Z,77.52
2017-11-22T00:54:23.437Z,77.41
2017-11-22T00:55:29.166Z,77.50
2017-11-22T00:56:34.881Z,77.69
2017-11-22T00:57:40.598Z,77.71
2017-11-22T00:58:47.108Z,77.77
2017-11-22T00:59:52.838Z,77.94
2017-11-22T01:00:58.563Z,77.98
2017-11-22T01:02:04.284Z,78.02
2017-11-22T01:03:10.784Z,77.67
2017-11-22T01:04:16.537Z,77.61
2017-11-22T01:05:22.279Z,77.60
2017-11-22T01:06:28.009Z,77.51
2017-11-22T01:07:33.756Z,77.54
2017-11-22T01:08:39.481Z,77.34
2017-11-22T01:09:45.231Z,77.19
2017-11-22T01:10:51.015Z,77.02
2017-11-22T01:11:58.260Z,77.17
2017-11-22T01:13:03.785Z,77.07
2017-11-22T01:14:09.518Z,76.93
2017-11-22T01:15:15.261Z,77.19
2017-11-22T01:16:20.993Z,76.88
2017-11-22T01:17:26.712Z,76.69
2017-11-22T01:18:33.202Z,76.72
2017-11-22T01:19:38.930Z,76.51
2017-11-22T01:20:44.704Z,76.07
2017-11-22T01:21:50.422Z,76.35
2017-11-22T01:22:56.166Z,76.50
2017-11-22T01:24:01.634Z,76.50
2017-11-22T01:25:07.361Z,76.52
2017-11-22T01:26:13.118Z,76.86
2017-11-22T01:27:18.919Z,76.74
2017-11-22T01:28:24.702Z,76.87
2017-11-22T01:29:30.428Z,77.01
2017-11-22T01:30:36.161Z,76.67
2017-11-22T01:31:41.900Z,76.71
2017-11-22T01:32:47.625Z,76.92
2017-11-22T01:33:53.346Z,76.85
2017-11-22T01:34:59.502Z,76.76
2017-11-22T01:36:05.218Z,76.76
2017-11-22T01:37:11.618Z,76.87
2017-11-22T01:38:17.335Z,77.09
2017-11-22T01:39:23.823Z,77.25
2017-11-22T01:40:29.538Z,77.19
2017-11-22T01:41:35.292Z,77.01
2017-11-22T01:42:41.039Z,77.05
2017-11-22T01:43:46.821Z,76.98
2017-11-22T01:44:52.567Z,76.88
2017-11-22T01:45:57.966Z,76.77
2017-11-22T01:47:03.121Z,76.90
2017-11-22T01:48:08.596Z,76.85
2017-11-22T01:49:14.411Z,77.11
2017-11-22T01:50:20.199Z,76.84
2017-11-22T01:51:25.914Z,76.94
2017-11-22T01:52:32.405Z,77.25
2017-11-22T01:53:38.152Z,77.43
2017-11-22T01:54:43.882Z,77.30
2017-11-22T01:55:49.614Z,76.87
2017-11-22T01:56:55.330Z,76.72
2017-11-22T01:58:01.611Z,76.74
2017-11-22T01:59:07.357Z,76.93
2017-11-22T02:00:13.080Z,76.89
2017-11-22T02:01:18.801Z,76.85
2017-11-22T02:02:24.651Z,76.86
2017-11-22T02:03:31.173Z,76.87
2017-11-22T02:04:36.920Z,76.60
2017-11-22T02:05:42.629Z,76.47
2017-11-22T02:06:48.360Z,76.36
2017-11-22T02:07:54.067Z,76.14
2017-11-22T02:08:59.780Z,76.18
2017-11-22T02:10:05.520Z,76.32
2017-11-22T02:11:11.238Z,76.33
2017-11-22T02:12:16.988Z,76.18
2017-11-22T02:13:22.882Z,76.02
2017-11-22T02:14:28.598Z,76.05
2017-11-22T02:15:34.320Z,76.06
2017-11-22T02:16:40.023Z,75.96
2017-11-22T02:17:46.491Z,75.64
2017-11-22T02:18:52.229Z,75.54
2017-11-22T02:19:58.075Z,75.43
2017-11-22T02:21:04.331Z,75.46
2017-11-22T02:22:09.403Z,75.48
2017-11-22T02:23:15.119Z,75.66
2017-11-22T02:24:20.822Z,75.59
2017-11-22T02:25:27.295Z,75.79
2017-11-22T02:26:33.017Z,75.72
2017-11-22T02:27:39.497Z,75.81
2017-11-22T02:28:45.197Z,75.71
2017-11-22T02:29:50.914Z,75.51
2017-11-22T02:30:55.982Z,75.67
2017-11-22T02:32:02.154Z,75.71
2017-11-22T02:33:07.844Z,75.86
2017-11-22T02:34:12.920Z,75.62
2017-11-22T02:35:18.294Z,75.78
2017-11-22T02:36:23.681Z,75.65
2017-11-22T02:37:29.711Z,75.60
2017-11-22T02:38:36.203Z,75.42
2017-11-22T02:39:41.923Z,75.52
2017-11-22T02:40:48.604Z,75.59
2017-11-22T02:41:54.297Z,75.56
2017-11-22T02:43:00.076Z,75.42
2017-11-22T02:44:05.824Z,75.35
2017-11-22T02:45:11.531Z,75.15
2017-11-22T02:46:17.238Z,75.28
2017-11-22T02:47:22.947Z,75.40
2017-11-22T02:48:28.678Z,75.12
2017-11-22T02:49:35.163Z,74.97
2017-11-22T02:50:40.859Z,75.16
2017-11-22T02:51:47.346Z,74.92
2017-11-22T02:52:53.176Z,74.65
2017-11-22T02:53:58.568Z,74.81
2017-11-22T02:55:04.279Z,74.77
2017-11-22T02:56:09.361Z,74.92
2017-11-22T02:57:15.169Z,75.02
2017-11-22T02:58:20.872Z,75.28
2017-11-22T02:59:26.601Z,75.27
2017-11-22T03:00:33.055Z,75.07
2017-11-22T03:01:39.517Z,74.85
2017-11-22T03:02:45.275Z,75.04
2017-11-22T03:03:50.978Z,75.26
2017-11-22T03:04:57.469Z,75.48
2017-11-22T03:06:03.174Z,75.25
2017-11-22T03:07:09.639Z,75.18
2017-11-22T03:08:15.775Z,75.13
2017-11-22T03:09:21.471Z,75.23
2017-11-22T03:10:26.994Z,75.01
2017-11-22T03:11:32.694Z,75.00
2017-11-22T03:12:38.410Z,74.97
2017-11-22T03:13:44.114Z,75.02
2017-11-22T03:14:49.615Z,74.96
2017-11-22T03:15:56.101Z,74.92
2017-11-22T03:17:01.807Z,74.75
2017-11-22T03:18:07.503Z,74.81
2017-11-22T03:19:13.201Z,74.34
2017-11-22T03:20:19.658Z,74.66
2017-11-22T03:21:26.153Z,74.66
2017-11-22T03:22:31.852Z,75.03
2017-11-22T03:23:38.324Z,74.86
2017-11-22T03:24:44.784Z,74.29
2017-11-22T03:25:51.251Z,74.08
2017-11-22T03:26:56.978Z,74.40
2017-11-22T03:28:03.457Z,74.19
2017-11-22T03:29:09.158Z,74.15
2017-11-22T03:30:16.359Z,74.25
2017-11-22T03:31:22.071Z,74.17
2017-11-22T03:32:27.795Z,73.70
2017-11-22T03:33:33.502Z,73.75
2017-11-22T03:34:39.211Z,73.64
2017-11-22T03:35:44.778Z,73.64
2017-11-22T03:36:49.619Z,73.49
2017-11-22T03:37:55.343Z,73.30
2017-11-22T03:39:01.042Z,73.72
2017-11-22T03:40:07.226Z,73.79
2017-11-22T03:41:12.912Z,73.63
2017-11-22T03:42:18.613Z,73.69
2017-11-22T03:43:24.345Z,73.90
2017-11-22T03:44:30.046Z,74.02
2017-11-22T03:45:35.738Z,73.99
2017-11-22T03:46:41.456Z,73.87
2017-11-22T03:47:48.186Z,74.01
2017-11-22T03:48:59.693Z,73.90
2017-11-22T03:50:10.410Z,73.86
2017-11-22T03:51:21.150Z,73.83
2017-11-22T03:52:32.302Z,73.99
2017-11-22T03:53:43.022Z,73.98
2017-11-22T03:54:49.538Z,74.11
2017-11-22T03:55:55.254Z,74.29
2017-11-22T03:57:00.945Z,74.31
2017-11-22T03:58:06.704Z,74.58
2017-11-22T03:59:12.970Z,74.92
2017-11-22T04:00:17.892Z,75.01
2017-11-22T04:01:24.217Z,75.37
2017-11-22T04:02:30.711Z,75.47
2017-11-22T04:03:38.214Z,75.56
2017-11-22T04:04:43.933Z,75.55
2017-11-22T04:05:55.174Z,75.21
2017-11-22T04:07:01.655Z,75.10
2017-11-22T04:08:08.285Z,74.99
2017-11-22T04:09:13.990Z,74.87
2017-11-22T04:10:19.697Z,74.69
2017-11-22T04:11:30.047Z,74.78
2017-11-22T04:12:35.765Z,74.89
2017-11-22T04:13:42.244Z,74.62
2017-11-22T04:14:47.947Z,74.71
2017-11-22T04:15:53.341Z,74.65
2017-11-22T04:16:59.069Z,74.59
2017-11-22T04:18:04.770Z,74.64
2017-11-22T04:19:15.763Z,74.74
2017-11-22T04:20:26.823Z,74.54
2017-11-22T04:21:33.289Z,74.48
2017-11-22T04:22:40.337Z,74.77
2017-11-22T04:23:46.816Z,74.60
2017-11-22T04:24:52.519Z,74.73
2017-11-22T04:25:59.749Z,74.56
2017-11-22T04:27:05.446Z,75.10
2017-11-22T04:28:11.946Z,74.96
2017-11-22T04:29:17.649Z,74.95
2017-11-22T04:30:24.147Z,74.85
2017-11-22T04:31:30.047Z,74.82
2017-11-22T04:32:36.521Z,74.70
2017-11-22T04:33:43.008Z,74.44
2017-11-22T04:34:48.517Z,74.28
2017-11-22T04:35:54.241Z,74.52
2017-11-22T04:37:00.853Z,74.42
2017-11-22T04:38:06.545Z,74.55
2017-11-22T04:39:13.047Z,74.72
2017-11-22T04:40:18.752Z,74.60
2017-11-22T04:41:25.221Z,74.34
2017-11-22T04:42:31.745Z,74.43
2017-11-22T04:43:37.110Z,74.37
2017-11-22T04:44:43.682Z,74.44
2017-11-22T04:45:49.062Z,74.50
2017-11-22T04:46:54.128Z,74.56
2017-11-22T04:47:59.935Z,74.22
2017-11-22T04:49:05.327Z,74.20
2017-11-22T04:50:11.054Z,74.18
2017-11-22T04:51:16.758Z,74.24
2017-11-22T04:52:22.460Z,74.18
2017-11-22T04:53:28.373Z,74.09
2017-11-22T04:54:34.850Z,74.12
2017-11-22T04:55:40.582Z,73.90
2017-11-22T04:56:46.274Z,73.80
2017-11-22T04:57:51.984Z,73.79
2017-11-22T04:58:57.686Z,74.07
2017-11-22T05:00:03.859Z,74.33
2017-11-22T05:01:09.428Z,74.23
2017-11-22T05:02:15.134Z,74.22
2017-11-22T05:03:20.846Z,74.21
2017-11-22T05:04:26.543Z,74.15
2017-11-22T05:05:32.247Z,74.20
2017-11-22T05:06:37.973Z,74.03
2017-11-22T05:07:44.439Z,74.16
2017-11-22T05:08:50.910Z,74.01
2017-11-22T05:09:56.611Z,73.91
2017-11-22T05:11:01.770Z,73.92
2017-11-22T05:12:07.502Z,73.79
2017-11-22T05:13:13.990Z,73.62
2017-11-22T05:14:19.686Z,73.88
2017-11-22T05:15:25.480Z,74.03
2017-11-22T05:16:31.222Z,74.29
2017-11-22T05:17:36.954Z,74.25
2017-11-22T05:18:42.682Z,74.40
2017-11-22T05:19:48.271Z,74.45
2017-11-22T05:20:53.981Z,74.51
2017-11-22T05:21:59.802Z,74.64
2017-11-22T05:23:05.538Z,74.79
2017-11-22T05:24:11.405Z,74.69
2017-11-22T05:25:17.098Z,74.76
2017-11-22T05:26:22.801Z,74.81
2017-11-22T05:27:28.817Z,74.64
2017-11-22T05:28:34.864Z,74.42
2017-11-22T05:29:40.650Z,74.39
2017-11-22T05:30:46.425Z,74.56
2017-11-22T05:31:52.210Z,74.57
2017-11-22T05:32:57.969Z,74.65
2017-11-22T05:34:03.818Z,74.66
2017-11-22T05:35:09.604Z,74.69
2017-11-22T05:36:16.807Z,74.68
2017-11-22T05:37:22.582Z,74.50
2017-11-22T05:38:29.989Z,74.59
2017-11-22T05:39:35.854Z,74.73
2017-11-22T05:40:42.451Z,74.87
2017-11-22T05:41:48.252Z,74.84
2017-11-22T05:42:54.734Z,74.90
2017-11-22T05:44:00.525Z,74.81
2017-11-22T05:45:07.171Z,74.87
2017-11-22T05:46:13.753Z,74.71
2017-11-22T05:47:20.956Z,74.74
2017-11-22T05:48:27.519Z,74.87
2017-11-22T05:49:33.429Z,74.91
2017-11-22T05:50:39.716Z,74.89
2017-11-22T05:51:45.455Z,75.06
2017-11-22T05:52:51.250Z,75.12
2017-11-22T05:53:58.487Z,75.16
2017-11-22T05:55:03.908Z,75.07
2017-11-22T05:56:10.130Z,75.09
2017-11-22T05:57:15.384Z,75.10
2017-11-22T05:58:20.993Z,75.02
2017-11-22T05:59:26.699Z,75.21
2017-11-22T06:00:37.915Z,74.88
2017-11-22T06:01:44.512Z,74.75
2017-11-22T06:02:50.261Z,74.77
2017-11-22T06:03:56.393Z,74.93
2017-11-22T06:05:02.122Z,74.91
2017-11-22T06:06:08.955Z,74.66
2017-11-22T06:07:14.743Z,74.42
2017-11-22T06:08:20.493Z,74.44
2017-11-22T06:09:26.200Z,74.59
2017-11-22T06:10:31.916Z,74.66
2017-11-22T06:11:37.642Z,74.27
2017-11-22T06:12:43.680Z,73.94
2017-11-22T06:13:49.378Z,73.98
2017-11-22T06:14:55.846Z,74.05
2017-11-22T06:16:02.326Z,74.11
2017-11-22T06:17:08.127Z,73.99
2017-11-22T06:18:14.019Z,74.18
2017-11-22T06:19:19.842Z,73.95
2017-11-22T06:20:25.639Z,74.09
2017-11-22T06:21:31.370Z,74.33
2017-11-22T06:22:37.238Z,74.44
2017-11-22T06:23:43.030Z,74.36
2017-11-22T06:24:48.761Z,74.20
2017-11-22T06:25:54.697Z,74.22
2017-11-22T06:27:00.433Z,74.17
2017-11-22T06:28:07.102Z,74.04
2017-11-22T06:29:12.908Z,74.11
2017-11-22T06:30:24.977Z,73.90
2017-11-22T06:31:30.901Z,73.83
2017-11-22T06:32:36.648Z,73.69
2017-11-22T06:33:42.425Z,73.87
2017-11-22T06:34:48.354Z,73.86
2017-11-22T06:35:54.088Z,73.94
2017-11-22T06:36:59.954Z,73.90
2017-11-22T06:38:06.484Z,73.81
2017-11-22T06:39:12.218Z,73.63
2017-11-22T06:40:18.090Z,73.60
2017-11-22T06:41:23.908Z,73.74
2017-11-22T06:42:29.378Z,73.94
2017-11-22T06:43:35.160Z,73.70
2017-11-22T06:44:40.918Z,73.89
2017-11-22T06:45:46.675Z,73.80
2017-11-22T06:46:52.949Z,73.81
2017-11-22T06:47:58.737Z,73.70
2017-11-22T06:49:04.479Z,73.70
2017-11-22T06:50:10.296Z,73.82
2017-11-22T06:51:16.829Z,73.68
2017-11-22T06:52:22.695Z,73.64
2017-11-22T06:53:29.295Z,73.52
2017-11-22T06:54:35.010Z,73.29
2017-11-22T06:55:41.486Z,73.23
2017-11-22T06:56:47.262Z,73.28
2017-11-22T06:57:54.078Z,73.41
2017-11-22T06:59:00.138Z,73.52
2017-11-22T07:00:06.403Z,73.23
2017-11-22T07:01:12.250Z,73.08
2017-11-22T07:02:20.511Z,72.97
2017-11-22T07:05:00.497Z,73.43
2017-11-22T07:06:06.347Z,73.21
2017-11-22T07:07:12.069Z,73.15
2017-11-22T07:08:17.842Z,73.25
2017-11-22T07:09:23.553Z,73.26
2017-11-22T07:10:29.351Z,72.42
2017-11-22T07:11:35.050Z,72.54
2017-11-22T07:12:41.094Z,72.64
2017-11-22T07:13:46.834Z,72.73
2017-11-22T07:14:52.541Z,72.70
2017-11-22T07:15:59.015Z,72.68
2017-11-22T07:17:10.846Z,72.67
2017-11-22T07:18:16.855Z,72.67
2017-11-22T07:19:23.724Z,72.73
2017-11-22T07:20:29.667Z,72.59
2017-11-22T07:21:35.606Z,72.54
2017-11-22T07:22:41.544Z,72.48
2017-11-22T07:23:47.578Z,72.62
2017-11-22T07:24:54.176Z,72.43
2017-11-22T07:26:00.006Z,72.22
2017-11-22T07:27:06.120Z,72.09
2017-11-22T07:28:11.877Z,72.25
2017-11-22T07:29:17.715Z,72.45
2017-11-22T07:30:24.351Z,72.20
2017-11-22T07:31:30.146Z,72.25
2017-11-22T07:32:36.693Z,72.11
2017-11-22T07:33:42.780Z,71.94
2017-11-22T07:34:48.885Z,71.76
2017-11-22T07:36:01.102Z,71.62
2017-11-22T07:37:12.476Z,71.63
2017-11-22T07:38:18.378Z,71.47
2017-11-22T07:39:24.136Z,71.66
2017-11-22T07:40:30.582Z,71.33
2017-11-22T07:41:36.567Z,71.65
2017-11-22T07:42:42.601Z,71.81
2017-11-22T07:43:49.137Z,71.74
2017-11-22T07:44:55.073Z,71.58
2017-11-22T07:46:00.849Z,71.60
2017-11-22T07:47:12.315Z,71.54
2017-11-22T07:48:19.042Z,71.50
2017-11-22T07:49:24.946Z,71.40
2017-11-22T07:50:30.726Z,71.45
2017-11-22T07:51:42.099Z,71.53
2017-11-22T07:52:47.640Z,71.56
2017-11-22T07:53:53.541Z,71.48
2017-11-22T07:54:59.347Z,71.58
2017-11-22T07:56:06.722Z,71.77
2017-11-22T07:57:12.422Z,71.72
2017-11-22T07:58:18.302Z,71.70
2017-11-22T07:59:24.283Z,71.58
2017-11-22T08:00:30.497Z,71.62
2017-11-22T08:01:36.357Z,71.73
2017-11-22T08:02:43.133Z,71.84
2017-11-22T08:03:49.954Z,71.94
2017-11-22T08:04:55.666Z,71.88
2017-11-22T08:06:01.384Z,71.90
2017-11-22T08:07:07.249Z,72.10
2017-11-22T08:08:13.264Z,72.14
2017-11-22T08:09:19.815Z,72.04
2017-11-22T08:10:25.580Z,72.21
2017-11-22T08:11:32.228Z,72.23
2017-11-22T08:12:39.844Z,72.09
2017-11-22T08:13:45.618Z,72.05
2017-11-22T08:14:51.644Z,72.08
2017-11-22T08:15:57.684Z,72.08
2017-11-22T08:17:03.681Z,72.28
2017-11-22T08:18:09.435Z,72.23
2017-11-22T08:19:16.047Z,72.07
2017-11-22T08:20:21.824Z,71.91
2017-11-22T08:21:27.620Z,71.84
2017-11-22T08:22:33.219Z,71.67
2017-11-22T08:23:39.070Z,71.82
2017-11-22T08:24:45.571Z,71.74
2017-11-22T08:25:58.426Z,71.60
2017-11-22T08:27:04.122Z,71.61
2017-11-22T08:28:09.817Z,71.79
2017-11-22T08:29:15.515Z,72.03
2017-11-22T08:30:21.432Z,72.02
2017-11-22T08:31:27.210Z,72.47
2017-11-22T08:32:32.709Z,72.62
2017-11-22T08:33:38.656Z,72.71
2017-11-22T08:34:44.671Z,72.05
2017-11-22T08:35:51.381Z,72.73
2017-11-22T08:36:57.312Z,72.79
2017-11-22T08:38:03.359Z,72.73
2017-11-22T08:39:09.135Z,72.93
2017-11-22T08:40:15.040Z,73.04
2017-11-22T08:41:27.345Z,73.21
2017-11-22T08:42:33.092Z,73.40
2017-11-22T08:43:45.082Z,73.21
2017-11-22T08:44:50.834Z,73.08
2017-11-22T08:45:56.675Z,73.16
2017-11-22T08:47:02.499Z,73.09
2017-11-22T08:48:08.654Z,73.07
2017-11-22T08:49:14.394Z,73.24
2017-11-22T08:50:20.124Z,73.27
2017-11-22T08:51:26.610Z,73.65
2017-11-22T08:52:33.503Z,73.99
2017-11-22T08:53:39.266Z,73.97
2017-11-22T08:54:50.358Z,73.77
2017-11-22T08:56:02.201Z,73.80
2017-11-22T08:57:13.256Z,74.19
2017-11-22T08:58:19.466Z,74.57
2017-11-22T08:59:25.201Z,74.71
2017-11-22T09:00:32.674Z,74.68
2017-11-22T09:01:39.246Z,74.78
2017-11-22T09:02:46.063Z,74.98
2017-11-22T09:03:51.768Z,75.30
2017-11-22T09:04:57.504Z,75.66
2017-11-22T09:06:08.581Z,75.66
2017-11-22T09:07:14.340Z,76.03
2017-11-22T09:08:20.076Z,76.07
2017-11-22T09:09:25.881Z,75.71
2017-11-22T09:10:32.454Z,75.81
2017-11-22T09:11:41.102Z,75.82
2017-11-22T09:12:52.157Z,75.44
2017-11-22T09:13:58.027Z,75.42
2017-11-22T09:15:05.858Z,75.68
2017-11-22T09:16:11.800Z,75.58
2017-11-22T09:17:20.113Z,75.35
2017-11-22T09:18:31.431Z,74.25
2017-11-22T09:19:39.997Z,74.64
2017-11-22T09:20:45.769Z,74.80
2017-11-22T09:21:51.639Z,74.98
2017-11-22T09:22:58.242Z,75.35
2017-11-22T09:25:43.507Z,76.00
2017-11-22T09:26:50.271Z,75.78
2017-11-22T09:27:56.902Z,75.81
2017-11-22T09:29:02.640Z,75.54
2017-11-22T09:30:14.182Z,75.31
2017-11-22T09:31:25.421Z,75.32
2017-11-22T09:32:33.093Z,75.35
2017-11-22T09:33:39.935Z,75.47
2017-11-22T09:34:50.992Z,75.26
2017-11-22T09:35:56.994Z,74.54
2017-11-22T09:37:02.796Z,74.07
2017-11-22T09:38:08.618Z,73.87
2017-11-22T09:39:14.352Z,73.56
2017-11-22T09:40:20.182Z,73.66
2017-11-22T09:41:26.826Z,73.20
2017-11-22T09:42:32.661Z,72.90
2017-11-22T09:43:39.222Z,72.92
2017-11-22T09:44:45.992Z,72.54
2017-11-22T09:45:51.894Z,72.34
2017-11-22T09:46:58.393Z,72.05
2017-11-22T09:48:04.095Z,71.85
2017-11-22T09:49:09.806Z,71.62
2017-11-22T09:50:15.538Z,71.64
2017-11-22T09:51:21.257Z,71.67
2017-11-22T09:52:26.957Z,71.48
2017-11-22T09:53:32.657Z,71.78
2017-11-22T09:54:38.172Z,71.62
2017-11-22T09:55:43.762Z,71.23
2017-11-22T09:56:49.653Z,70.77
2017-11-22T09:57:55.443Z,70.83
2017-11-22T09:59:02.115Z,70.38
2017-11-22T10:00:07.998Z,70.06
2017-11-22T10:01:14.774Z,70.10
2017-11-22T10:02:20.817Z,69.79
2017-11-22T10:03:26.572Z,69.20
2017-11-22T10:04:32.275Z,68.82
2017-11-22T10:05:38.793Z,68.74
2017-11-22T10:06:44.514Z,68.85
2017-11-22T10:07:50.228Z,68.74
2017-11-22T10:08:55.685Z,68.43
2017-11-22T10:10:01.143Z,67.42
2017-11-22T10:11:06.893Z,67.50
2017-11-22T10:12:12.639Z,67.37
2017-11-22T10:13:18.342Z,67.33
2017-11-22T10:14:24.181Z,67.60
2017-11-22T10:15:30.009Z,67.50
2017-11-22T10:16:35.833Z,67.29
2017-11-22T10:17:42.744Z,67.06
2017-11-22T10:18:48.653Z,66.86
2017-11-22T10:19:59.729Z,66.67
2017-11-22T10:21:05.455Z,66.49
2017-11-22T10:22:12.182Z,66.36
2017-11-22T10:23:23.585Z,66.17
2017-11-22T10:24:33.250Z,65.91
2017-11-22T10:25:42.073Z,65.87
2017-11-22T10:26:53.438Z,65.64
2017-11-22T10:28:04.894Z,65.90
2017-11-22T10:29:13.274Z,66.21
2017-11-22T10:30:20.599Z,65.94
2017-11-22T10:31:26.774Z,66.04
2017-11-22T10:32:34.652Z,65.86
2017-11-22T10:33:40.685Z,65.82
2017-11-22T10:34:47.363Z,65.74
2017-11-22T10:35:53.092Z,65.10
2017-11-22T10:36:58.970Z,65.05
2017-11-22T10:38:04.980Z,65.05
2017-11-22T10:39:10.755Z,65.01
2017-11-22T10:40:16.361Z,64.88
2017-11-22T10:41:22.084Z,64.76
2017-11-22T10:42:28.647Z,64.71
2017-11-22T10:43:35.382Z,64.63
2017-11-22T10:44:41.865Z,64.60
2017-11-22T10:45:47.727Z,64.43
2017-11-22T10:46:53.553Z,64.61
2017-11-22T10:48:00.114Z,64.56
2017-11-22T10:49:06.689Z,64.93
2017-11-22T10:50:12.585Z,64.81
2017-11-22T10:51:18.325Z,64.72
2017-11-22T10:52:24.038Z,64.60
2017-11-22T10:53:29.860Z,64.33
2017-11-22T10:54:35.965Z,64.25
2017-11-22T10:55:42.180Z,64.14
2017-11-22T10:56:47.501Z,64.17
2017-11-22T10:57:52.817Z,64.14
2017-11-22T10:58:58.766Z,64.33
2017-11-22T11:00:04.005Z,64.31
2017-11-22T11:01:09.992Z,64.57
2017-11-22T11:02:16.170Z,64.03
2017-11-22T11:03:21.910Z,64.12
2017-11-22T11:04:28.422Z,63.99
2017-11-22T11:05:34.444Z,63.77
2017-11-22T11:06:40.288Z,63.70
2017-11-22T11:07:46.834Z,63.19
2017-11-22T11:08:53.378Z,62.63
2017-11-22T11:09:59.184Z,62.75
2017-11-22T11:11:05.166Z,63.29
2017-11-22T11:12:11.802Z,63.28
2017-11-22T11:13:17.908Z,63.11
2017-11-22T11:14:23.855Z,62.80
2017-11-22T11:15:30.979Z,63.02
2017-11-22T11:16:37.921Z,63.03
2017-11-22T11:17:43.808Z,63.11
2017-11-22T11:18:49.648Z,63.00
2017-11-22T11:19:56.350Z,62.83
2017-11-22T11:21:02.127Z,62.57
2017-11-22T11:22:07.932Z,62.42
2017-11-22T11:23:13.813Z,62.16
2017-11-22T11:24:19.957Z,62.42
2017-11-22T11:25:25.981Z,62.26
2017-11-22T11:26:32.034Z,62.12
2017-11-22T11:27:37.853Z,61.85
2017-11-22T11:28:44.742Z,61.81
2017-11-22T11:29:50.487Z,61.89
2017-11-22T11:30:56.738Z,61.32
2017-11-22T11:32:02.441Z,61.14
2017-11-22T11:33:08.138Z,61.48
2017-11-22T11:34:13.855Z,61.57
2017-11-22T11:35:18.691Z,61.69
2017-11-22T11:36:34.212Z,61.79
2017-11-22T11:37:39.924Z,61.15
2017-11-22T11:38:44.952Z,61.30
2017-11-22T11:39:50.319Z,61.31
2017-11-22T11:40:56.603Z,61.60
2017-11-22T11:42:02.404Z,61.80
2017-11-22T11:43:08.103Z,61.72
2017-11-22T11:44:13.998Z,61.73
2017-11-22T11:45:20.479Z,62.09
2017-11-22T11:46:25.896Z,61.92
2017-11-22T11:47:32.402Z,61.89
2017-11-22T11:48:38.126Z,61.95
2017-11-22T11:49:43.839Z,61.56
2017-11-22T11:50:49.853Z,61.77
2017-11-22T11:51:55.788Z,61.68
2017-11-22T11:53:01.792Z,61.69
2017-11-22T11:54:07.510Z,61.64
2017-11-22T11:55:13.999Z,61.97
2017-11-22T11:56:19.492Z,62.00
2017-11-22T11:57:25.371Z,61.79
2017-11-22T11:58:31.262Z,61.53
2017-11-22T11:59:37.004Z,61.78
2017-11-22T12:00:42.259Z,61.71
2017-11-22T12:01:47.452Z,61.55
2017-11-22T12:02:53.463Z,61.78
2017-11-22T12:03:59.279Z,62.25
2017-11-22T12:05:04.999Z,62.20
2017-11-22T12:06:10.760Z,62.42
2017-11-22T12:07:17.458Z,62.46
2017-11-22T12:08:23.403Z,62.48
2017-11-22T12:09:29.497Z,62.50
2017-11-22T12:10:35.494Z,62.46
2017-11-22T12:11:41.518Z,63.10
2017-11-22T12:12:48.415Z,61.75
2017-11-22T12:13:54.363Z,61.02
2017-11-22T12:15:00.160Z,60.76
2017-11-22T12:16:06.805Z,60.62
2017-11-22T12:17:12.873Z,60.72
2017-11-22T12:18:18.941Z,60.67
2017-11-22T12:19:25.769Z,60.69
2017-11-22T12:20:32.424Z,60.76
2017-11-22T12:21:40.458Z,61.04
2017-11-22T12:22:51.859Z,61.25
2017-11-22T12:24:04.196Z,61.61
2017-11-22T12:25:10.017Z,61.72
2017-11-22T12:26:15.960Z,61.73
2017-11-22T12:27:21.881Z,61.83
2017-11-22T12:28:27.744Z,61.54
2017-11-22T12:29:33.776Z,61.66
2017-11-22T12:30:39.746Z,61.88
2017-11-22T12:31:45.659Z,61.72
2017-11-22T12:32:51.455Z,61.77
2017-11-22T12:33:57.330Z,61.71
2017-11-22T12:35:04.028Z,61.51
2017-11-22T12:36:10.150Z,61.55
2017-11-22T12:37:16.754Z,61.48
2017-11-22T12:38:24.419Z,61.32
2017-11-22T12:39:30.294Z,61.49
2017-11-22T12:40:36.061Z,61.62
2017-11-22T12:41:42.253Z,61.79
2017-11-22T12:42:49.145Z,61.68
2017-11-22T12:43:55.368Z,61.67
2017-11-22T12:45:01.595Z,61.54
2017-11-22T12:46:08.090Z,61.51
2017-11-22T12:47:13.827Z,61.48
2017-11-22T12:48:19.391Z,61.43
2017-11-22T12:49:25.526Z,61.31
2017-11-22T12:50:31.623Z,61.40
2017-11-22T12:51:38.634Z,61.50
2017-11-22T12:52:44.888Z,61.28
2017-11-22T12:53:50.935Z,61.20
2017-11-22T12:54:57.084Z,61.39
2017-11-22T12:56:03.204Z,61.60
2017-11-22T12:57:10.033Z,61.70
2017-11-22T12:58:16.139Z,61.97
2017-11-22T12:59:21.996Z,61.83
2017-11-22T13:00:27.864Z,61.72
2017-11-22T13:01:33.575Z,61.82
2017-11-22T13:02:40.056Z,61.72
2017-11-22T13:03:46.105Z,61.60
2017-11-22T13:04:52.138Z,61.64
2017-11-22T13:05:58.303Z,61.82
2017-11-22T13:07:04.417Z,61.87
2017-11-22T13:08:10.560Z,61.80
2017-11-22T13:09:16.742Z,61.67
2017-11-22T13:10:27.529Z,61.58
2017-11-22T13:11:41.885Z,61.71
2017-11-22T13:12:47.607Z,61.83
2017-11-22T13:13:53.335Z,61.85
2017-11-22T13:14:59.089Z,61.82
2017-11-22T13:16:04.792Z,61.90
2017-11-22T13:17:11.262Z,62.13
2017-11-22T13:18:16.996Z,62.36
2017-11-22T13:19:23.513Z,62.30
2017-11-22T13:20:29.240Z,62.24
2017-11-22T13:21:34.949Z,62.26
2017-11-22T13:22:40.847Z,62.44
2017-11-22T13:23:46.565Z,62.44
2017-11-22T13:24:51.996Z,62.44
2017-11-22T13:25:57.402Z,62.48
2017-11-22T13:27:03.139Z,62.56
2017-11-22T13:28:08.981Z,62.70
2017-11-22T13:29:14.724Z,62.64
2017-11-22T13:30:20.122Z,62.64
2017-11-22T13:31:25.969Z,62.72
2017-11-22T13:32:42.284Z,62.80
2017-11-22T13:33:48.081Z,62.94
2017-11-22T13:34:53.842Z,63.02
2017-11-22T13:36:01.455Z,62.92
2017-11-22T13:37:06.787Z,62.99
2017-11-22T13:38:12.629Z,62.96
2017-11-22T13:39:18.822Z,62.93
2017-11-22T13:40:25.182Z,62.90
2017-11-22T13:41:30.754Z,62.91
2017-11-22T13:42:39.667Z,63.02
2017-11-22T13:43:45.942Z,63.09
2017-11-22T13:44:52.547Z,63.24
2017-11-22T13:45:57.977Z,63.45
2017-11-22T13:47:03.882Z,63.54
2017-11-22T13:48:09.492Z,63.72
2017-11-22T13:49:15.948Z,63.88
2017-11-22T13:50:22.490Z,63.99
2017-11-22T13:51:29.051Z,64.23
2017-11-22T13:52:34.509Z,63.95
2017-11-22T13:53:40.704Z,63.80
2017-11-22T13:54:45.516Z,63.67
2017-11-22T13:55:51.049Z,63.18
2017-11-22T13:56:56.579Z,63.24
2017-11-22T13:58:03.445Z,63.28
2017-11-22T13:59:09.553Z,63.22
2017-11-22T14:00:16.468Z,63.16
2017-11-22T14:01:21.662Z,63.07
2017-11-22T14:02:27.579Z,63.09
2017-11-22T14:03:33.575Z,63.05
2017-11-22T14:04:40.080Z,62.90
2017-11-22T14:05:45.876Z,62.79
2017-11-22T14:06:52.233Z,62.95
2017-11-22T14:07:57.923Z,62.99
2017-11-22T14:09:03.714Z,62.94
2017-11-22T14:10:10.198Z,62.98
2017-11-22T14:11:15.802Z,63.13
2017-11-22T14:12:21.751Z,63.30
2017-11-22T14:13:28.159Z,63.49
2017-11-22T14:14:34.878Z,63.58
2017-11-22T14:15:41.436Z,63.84
2017-11-22T14:16:47.761Z,64.01